Time;durP1;ratioP1;P1;durP2;ratioP2;P2;SDS_P1;SDS_P2;PMS_P1;PMS_P2;Temp;Humidity;BMP_temperature;BMP_pressure;BME280_temperature;BME280_humidity;BME280_pressure;Samples;Min_cycle;Max_cycle;Signal;HPM_P1;HPM_P2
2023/03/06 00:00:28;;;;;;;16.70;5.13;;;;;;;2.88;100.00;100911.97;5072114;28;20028;-54
2023/03/06 00:02:54;;;;;;;14.13;4.97;;;;;;;2.89;100.00;100916.31;5069919;28;20033;-52
2023/03/06 00:05:19;;;;;;;14.98;4.40;;;;;;;2.84;100.00;100903.41;5071335;28;20061;-52
2023/03/06 00:07:45;;;;;;;19.05;4.95;;;;;;;2.81;100.00;100907.16;5071101;28;20040;-52
2023/03/06 00:10:15;;;;;;;10.00;4.97;;;;;;;2.82;100.00;100900.88;5071154;28;20497;-52
2023/03/06 00:12:40;;;;;;;13.68;5.75;;;;;;;2.85;100.00;100899.78;5071606;28;20025;-52
2023/03/06 00:15:06;;;;;;;18.70;5.35;;;;;;;2.86;100.00;100912.09;5071726;28;20025;-52
2023/03/06 00:17:31;;;;;;;16.80;5.47;;;;;;;2.89;100.00;100903.00;5069414;28;20021;-52
2023/03/06 00:19:57;;;;;;;13.18;4.25;;;;;;;2.91;100.00;100895.75;5072569;28;20036;-51
2023/03/06 00:22:22;;;;;;;13.57;4.32;;;;;;;2.89;100.00;100901.19;5070379;28;20625;-55
2023/03/06 00:24:47;;;;;;;12.45;4.50;;;;;;;2.86;100.00;100891.66;5071855;28;20103;-52
2023/03/06 00:27:13;;;;;;;8.60;3.70;;;;;;;2.86;100.00;100896.16;5072740;28;20020;-52
2023/03/06 00:29:38;;;;;;;7.10;2.35;;;;;;;2.87;100.00;100887.22;5071571;28;20041;-52
2023/03/06 00:32:04;;;;;;;5.28;1.40;;;;;;;2.88;100.00;100883.56;5070711;28;20135;-51
2023/03/06 00:34:29;;;;;;;5.45;1.08;;;;;;;2.92;100.00;100877.00;5071549;28;20064;-52
2023/03/06 00:36:55;;;;;;;6.43;1.00;;;;;;;2.95;100.00;100878.56;5070604;28;20410;-53
2023/03/06 00:39:20;;;;;;;7.00;1.00;;;;;;;2.94;100.00;100879.53;5070904;28;20068;-51
2023/03/06 00:41:46;;;;;;;2.35;0.70;;;;;;;2.94;100.00;100871.56;5070366;28;20133;-52
2023/03/06 00:44:11;;;;;;;7.70;0.93;;;;;;;2.97;100.00;100864.16;5070848;28;20086;-52
2023/03/06 00:46:37;;;;;;;9.15;0.80;;;;;;;2.99;100.00;100864.03;5069876;28;20126;-52
2023/03/06 00:49:02;;;;;;;4.03;0.80;;;;;;;3.03;100.00;100865.47;5070780;28;20100;-51
2023/03/06 00:51:27;;;;;;;2.70;1.02;;;;;;;3.04;100.00;100861.81;5070723;28;20029;-52
2023/03/06 00:53:53;;;;;;;3.38;0.88;;;;;;;3.03;100.00;100849.53;5070684;28;20021;-53
2023/03/06 00:56:18;;;;;;;5.65;0.70;;;;;;;2.98;100.00;100841.09;5069400;28;20024;-53
2023/03/06 00:58:44;;;;;;;5.25;0.90;;;;;;;2.98;100.00;100843.75;5070493;28;20475;-51
2023/03/06 01:01:09;;;;;;;2.53;0.70;;;;;;;2.95;100.00;100839.53;5069703;28;20055;-52
2023/03/06 01:03:34;;;;;;;9.77;1.25;;;;;;;2.93;100.00;100838.00;5070439;28;20028;-52
2023/03/06 01:06:00;;;;;;;5.15;1.70;;;;;;;2.95;100.00;100833.38;5069511;28;20070;-55
2023/03/06 01:08:25;;;;;;;1.77;0.98;;;;;;;2.92;100.00;100836.28;5070396;28;20031;-53
2023/03/06 01:10:50;;;;;;;4.45;1.35;;;;;;;2.86;100.00;100827.88;5069231;28;20470;-52
2023/03/06 01:13:16;;;;;;;2.78;1.15;;;;;;;2.78;100.00;100830.34;5069048;28;20036;-54
2023/03/06 01:15:41;;;;;;;4.75;1.95;;;;;;;2.70;100.00;100834.66;5069447;28;20036;-52
2023/03/06 01:18:06;;;;;;;7.32;1.50;;;;;;;2.60;100.00;100829.25;5069686;28;20119;-52
2023/03/06 01:20:32;;;;;;;7.97;1.52;;;;;;;2.51;100.00;100832.72;5069615;28;20016;-55
2023/03/06 01:22:57;;;;;;;5.05;1.83;;;;;;;2.46;100.00;100834.91;5069937;28;20094;-53
2023/03/06 01:25:23;;;;;;;2.50;1.23;;;;;;;2.42;100.00;100839.63;5070081;28;20029;-53
2023/03/06 01:27:49;;;;;;;9.18;1.63;;;;;;;2.36;100.00;100830.38;5070688;28;20112;-53
2023/03/06 01:30:14;;;;;;;10.40;1.45;;;;;;;2.31;100.00;100829.91;5070894;28;20017;-52
2023/03/06 01:32:40;;;;;;;8.57;1.80;;;;;;;2.27;100.00;100827.66;5069156;28;20028;-54
2023/03/06 01:35:05;;;;;;;7.32;1.42;;;;;;;2.21;100.00;100826.34;5070122;28;20398;-52
2023/03/06 01:37:31;;;;;;;7.25;1.20;;;;;;;2.15;100.00;100825.03;5068782;28;20033;-54
2023/03/06 01:39:56;;;;;;;5.57;1.35;;;;;;;2.10;100.00;100829.88;5069007;28;20020;-53
2023/03/06 01:42:22;;;;;;;4.82;1.40;;;;;;;2.08;100.00;100825.69;5069504;28;20517;-54
2023/03/06 01:45:26;;;;;;;3.72;1.30;;;;;;;2.04;100.00;100818.94;5069703;28;20496;-53
2023/03/06 01:47:51;;;;;;;5.10;1.50;;;;;;;2.03;100.00;100814.59;5069999;28;20064;-51
2023/03/06 01:50:17;;;;;;;7.00;1.42;;;;;;;1.96;100.00;100817.78;5068713;28;20086;-54
2023/03/06 01:52:46;;;;;;;2.28;1.20;;;;;;;1.91;100.00;100813.81;5069178;28;20032;-55
2023/03/06 01:55:15;;;;;;;9.32;1.38;;;;;;;1.87;100.00;100813.25;5069875;28;20036;-55
2023/03/06 01:57:43;;;;;;;8.82;2.08;;;;;;;1.80;100.00;100801.44;5069324;28;20020;-54
2023/03/06 02:00:17;;;;;;;8.30;1.50;;;;;;;1.79;100.00;100802.41;5066984;28;20039;-52
2023/03/06 02:03:05;;;;;;;5.05;1.70;;;;;;;1.74;100.00;100801.94;5067585;28;20412;-54
2023/03/06 02:05:30;;;;;;;6.32;1.73;;;;;;;1.78;100.00;100802.53;5068864;28;20050;-54
2023/03/06 02:07:56;;;;;;;7.25;1.38;;;;;;;1.81;100.00;100803.09;5069834;28;20025;-54
2023/03/06 02:10:22;;;;;;;10.73;1.90;;;;;;;1.86;100.00;100800.91;5068936;28;20454;-52
2023/03/06 02:12:48;;;;;;;5.47;1.35;;;;;;;1.91;100.00;100798.72;5069124;28;20029;-52
2023/03/06 02:15:16;;;;;;;9.85;1.90;;;;;;;1.94;100.00;100793.16;5068449;28;20025;-53
2023/03/06 02:17:43;;;;;;;7.00;1.80;;;;;;;1.90;100.00;100794.41;5068088;28;20027;-54
2023/03/06 02:20:11;;;;;;;6.50;1.43;;;;;;;1.84;100.00;100789.59;5069074;28;20033;-52
2023/03/06 02:22:46;;;;;;;4.68;1.80;;;;;;;1.82;100.00;100783.59;5069556;28;20058;-53
2023/03/06 02:25:44;;;;;;;4.32;1.33;;;;;;;1.79;100.00;100773.22;5069175;28;20517;-52
2023/03/06 02:28:10;;;;;;;;;;;;;;;1.78;100.00;100770.69;5073637;28;20029;-52
2023/03/06 02:30:36;;;;;;;3.00;1.30;;;;;;;1.76;100.00;100768.16;5071786;28;19916;-51
2023/03/06 02:33:03;;;;;;;9.07;1.88;;;;;;;1.72;100.00;100764.91;5073177;28;20569;-52
2023/03/06 02:35:30;;;;;;;10.45;1.70;;;;;;;1.74;100.00;100762.97;5072192;28;20028;-52
2023/03/06 02:37:57;;;;;;;7.60;1.80;;;;;;;1.73;100.00;100753.31;5073240;28;20027;-54
2023/03/06 02:40:23;;;;;;;11.10;1.40;;;;;;;1.75;100.00;100750.56;5070984;28;20502;-52
2023/03/06 02:42:55;;;;;;;8.00;1.55;;;;;;;1.75;100.00;100746.09;5073002;28;20081;-52
2023/03/06 02:45:27;;;;;;;5.07;1.58;;;;;;;1.77;100.00;100742.47;5073224;28;20017;-52
2023/03/06 02:47:53;;;;;;;8.63;1.88;;;;;;;1.78;100.00;100729.06;5071964;28;20164;-52
2023/03/06 02:50:18;;;;;;;8.77;2.00;;;;;;;1.77;100.00;100738.00;5072303;28;20119;-54
2023/03/06 02:52:43;;;;;;;4.40;1.50;;;;;;;1.77;100.00;100730.06;5072087;28;20032;-52
2023/03/06 02:55:09;;;;;;;10.77;1.30;;;;;;;1.80;100.00;100732.44;5072761;28;20039;-53
2023/03/06 02:57:34;;;;;;;3.38;1.40;;;;;;;1.83;100.00;100724.22;5072782;28;20036;-53
2023/03/06 02:59:59;;;;;;;5.85;1.40;;;;;;;1.90;100.00;100725.41;5071796;28;20033;-53
2023/03/06 03:02:25;;;;;;;4.78;1.40;;;;;;;1.96;100.00;100722.22;5072646;28;20020;-51
2023/03/06 03:04:50;;;;;;;9.95;1.38;;;;;;;2.04;100.00;100726.03;5072230;28;20037;-54
2023/03/06 03:07:15;;;;;;;15.70;1.33;;;;;;;2.10;100.00;100722.88;5072978;28;20021;-52
2023/03/06 03:09:41;;;;;;;5.93;1.15;;;;;;;2.16;100.00;100722.38;5072133;28;20137;-55
2023/03/06 03:12:06;;;;;;;9.27;1.30;;;;;;;2.22;100.00;100727.13;5070833;28;20025;-52
2023/03/06 03:14:32;;;;;;;7.65;1.40;;;;;;;2.28;100.00;100726.59;5072328;28;20047;-52
2023/03/06 03:16:58;;;;;;;4.38;1.10;;;;;;;2.34;100.00;100726.09;5072944;28;20479;-54
2023/03/06 03:19:23;;;;;;;3.13;1.00;;;;;;;2.42;100.00;100723.63;5071426;28;20040;-54
2023/03/06 03:21:50;;;;;;;4.60;1.23;;;;;;;2.50;100.00;100722.09;5071913;28;20049;-51
2023/03/06 03:24:15;;;;;;;4.40;1.05;;;;;;;2.58;100.00;100722.28;5071417;28;20036;-53
2023/03/06 03:26:41;;;;;;;5.70;1.20;;;;;;;2.63;100.00;100720.94;5071182;28;20062;-55
2023/03/06 03:29:06;;;;;;;6.20;1.70;;;;;;;2.67;100.00;100715.34;5071556;28;20131;-54
2023/03/06 03:31:32;;;;;;;9.63;1.55;;;;;;;2.69;100.00;100716.88;5069455;28;20042;-52
2023/03/06 03:33:57;;;;;;;5.93;1.35;;;;;;;2.71;100.00;100708.75;5072017;28;20025;-52
2023/03/06 03:36:23;;;;;;;2.92;1.33;;;;;;;2.71;100.00;100704.28;5071263;28;20082;-53
2023/03/06 03:38:48;;;;;;;9.60;1.90;;;;;;;2.72;100.00;100691.88;5070939;28;20020;-51
2023/03/06 03:41:14;;;;;;;8.40;1.50;;;;;;;2.71;100.00;100688.34;5072004;28;20049;-53
2023/03/06 03:43:39;;;;;;;6.57;1.38;;;;;;;2.71;100.00;100683.03;5072098;28;20449;-53
2023/03/06 03:46:05;;;;;;;3.50;1.10;;;;;;;2.71;100.00;100688.34;5071196;28;20086;-54
2023/03/06 03:48:30;;;;;;;1.92;1.23;;;;;;;2.72;100.00;100671.44;5069272;28;20105;-52
2023/03/06 03:51:03;;;;;;;9.85;1.48;;;;;;;2.77;100.00;100674.53;5071999;28;20425;-51
2023/03/06 03:53:29;;;;;;;7.35;1.00;;;;;;;2.82;100.00;100672.31;5071579;28;20024;-52
2023/03/06 03:55:54;;;;;;;5.40;1.45;;;;;;;2.86;100.00;100671.03;5071831;28;20027;-51
2023/03/06 03:58:19;;;;;;;8.60;1.60;;;;;;;2.92;100.00;100666.16;5070778;28;20067;-50
2023/03/06 04:00:46;;;;;;;2.00;1.13;;;;;;;2.95;100.00;100661.44;5070220;28;20548;-54
2023/03/06 04:03:11;;;;;;;5.43;1.42;;;;;;;2.99;100.00;100662.00;5067888;28;20040;-53
2023/03/06 04:05:36;;;;;;;4.75;1.30;;;;;;;2.99;100.00;100654.84;5070191;28;20032;-51
2023/03/06 04:08:02;;;;;;;2.33;1.17;;;;;;;3.01;100.00;100654.72;5070482;28;20525;-52
2023/03/06 04:10:27;;;;;;;5.53;1.35;;;;;;;3.04;100.00;100654.44;5071138;28;20381;-51
2023/03/06 04:12:53;;;;;;;9.25;1.65;;;;;;;3.10;100.00;100653.88;5070761;28;20107;-53
2023/03/06 04:15:18;;;;;;;6.13;1.67;;;;;;;3.14;100.00;100647.31;5071197;28;20047;-53
2023/03/06 04:17:43;;;;;;;10.98;1.88;;;;;;;3.19;100.00;100650.41;5071037;28;20036;-52
2023/03/06 04:20:09;;;;;;;6.50;1.67;;;;;;;3.25;100.00;100654.31;5071328;28;20028;-55
2023/03/06 04:22:35;;;;;;;4.07;1.80;;;;;;;3.33;100.00;100653.63;5070303;28;20071;-54
2023/03/06 04:25:00;;;;;;;7.07;1.90;;;;;;;3.37;100.00;100644.38;5071232;28;20124;-52
2023/03/06 04:27:25;;;;;;;3.65;1.70;;;;;;;3.42;100.00;100644.78;5070981;28;20033;-52
2023/03/06 04:29:55;;;;;;;8.82;2.13;;;;;;;3.41;100.00;100637.81;5073070;28;20024;-51
2023/03/06 04:32:20;;;;;;;8.85;2.92;;;;;;;3.41;100.00;100630.66;5086675;28;20028;-57
2023/03/06 04:34:45;;;;;;;13.18;3.20;;;;;;;3.40;100.00;100628.16;5070926;28;20562;-56
2023/03/06 04:37:19;;;;;;;12.63;2.80;;;;;;;3.42;100.00;100623.50;5071160;28;20094;-55
2023/03/06 04:39:45;;;;;;;8.07;3.30;;;;;;;3.43;100.00;100627.88;5070944;28;20024;-56
2023/03/06 04:42:11;;;;;;;11.77;3.38;;;;;;;3.45;100.00;100615.25;5070186;28;20111;-54
2023/03/06 04:44:36;;;;;;;11.18;3.65;;;;;;;3.39;100.00;100613.16;5070571;28;20103;-54
2023/03/06 04:47:01;;;;;;;9.30;4.03;;;;;;;3.43;100.00;100618.06;5071454;28;20067;-57
2023/03/06 04:49:27;;;;;;;21.10;4.32;;;;;;;3.56;100.00;100622.25;5070820;28;20032;-55
2023/03/06 04:51:52;;;;;;;15.38;3.95;;;;;;;3.53;100.00;100615.41;5070760;28;20060;-52
2023/03/06 04:54:17;;;;;;;16.00;2.97;;;;;;;3.51;100.00;100614.69;5069957;28;20028;-50
2023/03/06 04:56:42;;;;;;;7.50;2.80;;;;;;;3.48;100.00;100615.81;5068709;28;20036;-51
2023/03/06 04:59:08;;;;;;;15.77;3.20;;;;;;;3.50;100.00;100618.31;5068744;28;20028;-49
2023/03/06 05:01:34;;;;;;;9.07;2.47;;;;;;;3.49;100.00;100625.47;5068670;28;20044;-51
2023/03/06 05:03:59;;;;;;;15.88;2.55;;;;;;;3.49;100.00;100616.66;5068183;28;20040;-52
2023/03/06 05:06:24;;;;;;;11.60;2.10;;;;;;;3.52;100.00;100609.22;5068914;28;20462;-52
2023/03/06 05:08:50;;;;;;;8.35;2.05;;;;;;;3.51;100.00;100614.69;5068379;28;20028;-53
2023/03/06 05:11:15;;;;;;;13.32;2.13;;;;;;;3.54;100.00;100618.91;5068430;28;20036;-54
2023/03/06 05:13:41;;;;;;;8.85;2.78;;;;;;;3.54;100.00;100611.75;5067894;28;20032;-51
2023/03/06 05:16:07;;;;;;;14.27;2.22;;;;;;;3.54;100.00;100608.25;5068247;28;20028;-51
2023/03/06 05:18:33;;;;;;;16.45;2.90;;;;;;;3.52;100.00;100603.06;5068463;28;20079;-51
2023/03/06 05:20:59;;;;;;;14.63;2.63;;;;;;;3.52;100.00;100606.56;5068346;28;20112;-51
2023/03/06 05:23:26;;;;;;;8.30;2.75;;;;;;;3.53;100.00;100602.09;5068086;28;20465;-51
2023/03/06 05:25:52;;;;;;;8.85;2.58;;;;;;;3.52;100.00;100600.41;5079562;28;20071;-52
2023/03/06 05:28:17;;;;;;;13.65;2.95;;;;;;;3.55;100.00;100605.44;5066154;28;20064;-50
2023/03/06 05:30:43;;;;;;;10.43;2.42;;;;;;;3.56;100.00;100606.28;5067778;28;20033;-51
2023/03/06 05:33:08;;;;;;;12.38;3.00;;;;;;;3.58;100.00;100599.84;5066182;28;20375;-53
2023/03/06 05:35:33;;;;;;;9.85;2.80;;;;;;;3.64;100.00;100598.44;5066618;28;20477;-50
2023/03/06 05:37:59;;;;;;;17.52;2.72;;;;;;;3.69;100.00;100590.88;5066339;28;20068;-52
2023/03/06 05:40:24;;;;;;;7.55;1.70;;;;;;;3.68;100.00;100586.50;5069987;28;20449;-52
2023/03/06 05:42:50;;;;;;;12.10;2.08;;;;;;;3.75;100.00;100600.94;5069704;28;20028;-52
2023/03/06 05:45:15;;;;;;;13.23;1.90;;;;;;;3.76;100.00;100596.44;5072987;28;20425;-52
2023/03/06 05:47:40;;;;;;;8.35;1.63;;;;;;;3.87;100.00;100596.25;5070197;28;20067;-52
2023/03/06 05:50:07;;;;;;;11.23;2.10;;;;;;;3.94;100.00;100594.69;5069892;28;20385;-52
2023/03/06 05:52:32;;;;;;;7.70;1.52;;;;;;;3.94;100.00;100602.69;5070900;28;20024;-52
2023/03/06 05:54:58;;;;;;;12.27;1.38;;;;;;;3.92;100.00;100596.66;5069005;28;20090;-51
2023/03/06 05:57:23;;;;;;;8.63;1.27;;;;;;;3.89;100.00;100592.47;5069613;28;20437;-52
2023/03/06 05:59:49;;;;;;;4.10;0.80;;;;;;;3.90;100.00;100593.34;5066998;28;20108;-51
2023/03/06 06:02:16;;;;;;;8.70;1.10;;;;;;;3.84;100.00;100588.56;5067671;28;20064;-52
2023/03/06 06:04:41;;;;;;;6.70;1.35;;;;;;;3.80;100.00;100600.50;5069478;28;20037;-51
2023/03/06 06:07:07;;;;;;;12.20;1.42;;;;;;;3.68;100.00;100600.66;5081086;28;20028;-52
2023/03/06 06:09:32;;;;;;;4.72;0.75;;;;;;;3.68;100.00;100603.31;5067510;28;20449;-52
2023/03/06 06:12:00;;;;;;;4.47;1.80;;;;;;;3.64;100.00;100609.91;5069529;28;20518;-54
2023/03/06 06:14:25;;;;;;;7.32;2.20;;;;;;;3.61;100.00;100606.72;5067631;28;20593;-55
2023/03/06 06:16:51;;;;;;;11.18;1.88;;;;;;;3.68;100.00;100605.97;5066127;28;20055;-52
2023/03/06 06:19:19;;;;;;;7.57;2.25;;;;;;;3.64;100.00;100604.59;5065963;28;20562;-54
2023/03/06 06:21:46;;;;;;;;;;;;;;;3.64;100.00;100603.75;5069065;28;20028;-53
2023/03/06 06:24:12;;;;;;;18.95;1.77;;;;;;;3.61;100.00;100610.22;5068643;28;19927;-52
2023/03/06 06:26:38;;;;;;;5.88;1.58;;;;;;;3.56;100.00;100609.78;5070072;28;20024;-54
2023/03/06 06:29:04;;;;;;;6.30;1.90;;;;;;;3.55;100.00;100613.41;5055968;28;20052;-54
2023/03/06 06:31:29;;;;;;;18.95;2.20;;;;;;;3.53;100.00;100615.41;5065570;28;20028;-54
2023/03/06 06:33:54;;;;;;;14.68;2.00;;;;;;;3.55;100.00;100615.25;5068967;28;20139;-56
2023/03/06 06:36:20;;;;;;;15.30;2.67;;;;;;;3.56;100.00;100612.44;5067538;28;20078;-52
2023/03/06 06:38:46;;;;;;;8.90;2.65;;;;;;;3.58;100.00;100610.50;5067759;28;20032;-52
2023/03/06 06:41:11;;;;;;;15.65;4.18;;;;;;;3.61;100.00;100614.69;5067352;28;20029;-55
2023/03/06 06:43:36;;;;;;;11.55;2.55;;;;;;;3.65;100.00;100614.25;5062831;28;20112;-54
2023/03/06 06:46:02;;;;;;;7.15;2.00;;;;;;;3.61;100.00;100617.34;5055306;28;20556;-53
2023/03/06 06:48:27;;;;;;;13.43;2.03;;;;;;;3.61;100.00;100626.16;5064749;28;20457;-54
2023/03/06 06:50:56;;;;;;;6.97;1.27;;;;;;;3.58;100.00;100625.59;5067097;28;20033;-52
2023/03/06 06:53:22;;;;;;;7.10;1.50;;;;;;;3.62;100.00;100622.53;5068023;28;20112;-54
2023/03/06 06:55:47;;;;;;;11.48;2.70;;;;;;;3.65;100.00;100630.22;5069311;28;20024;-53
2023/03/06 06:58:13;;;;;;;11.75;2.25;;;;;;;3.63;100.00;100629.50;5068235;28;20040;-54
2023/03/06 07:00:39;;;;;;;13.43;2.40;;;;;;;3.67;100.00;100630.09;5068090;28;20331;-52
2023/03/06 07:03:04;;;;;;;7.13;1.23;;;;;;;3.72;100.00;100620.69;5068234;28;20513;-54
2023/03/06 07:05:29;;;;;;;14.45;1.70;;;;;;;3.71;100.00;100621.69;5069030;28;20043;-53
2023/03/06 07:07:55;;;;;;;6.32;1.70;;;;;;;3.78;100.00;100618.44;5068218;28;20029;-52
2023/03/06 07:10:20;;;;;;;12.05;2.03;;;;;;;3.81;100.00;100620.81;5067756;28;20032;-55
2023/03/06 07:12:45;;;;;;;10.73;1.90;;;;;;;3.86;100.00;100621.22;5067841;28;20466;-52
2023/03/06 07:15:13;;;;;;;9.32;1.90;;;;;;;3.96;100.00;100612.22;5071365;28;20437;-54
2023/03/06 07:17:39;;;;;;;10.15;1.27;;;;;;;4.01;100.00;100611.78;5071905;28;20035;-53
2023/03/06 07:20:05;;;;;;;9.43;2.38;;;;;;;4.10;100.00;100610.06;5072128;28;20024;-55
2023/03/06 07:22:31;;;;;;;8.75;1.20;;;;;;;4.14;100.00;100603.47;5072387;28;20151;-53
2023/03/06 07:24:57;;;;;;;9.98;1.25;;;;;;;4.22;100.00;100608.06;5072151;28;20090;-56
2023/03/06 07:27:24;;;;;;;8.00;1.02;;;;;;;4.31;100.00;100610.69;5072666;28;20029;-56
2023/03/06 07:29:50;;;;;;;10.45;1.50;;;;;;;4.36;100.00;100604.91;5071659;28;20031;-54
2023/03/06 07:32:15;;;;;;;12.70;1.48;;;;;;;4.44;100.00;100607.69;5072022;28;20499;-53
2023/03/06 07:34:41;;;;;;;10.75;1.42;;;;;;;4.62;100.00;100611.22;5072478;28;20090;-54
2023/03/06 07:37:07;;;;;;;17.48;1.75;;;;;;;4.76;100.00;100607.22;5072541;28;20491;-53
2023/03/06 07:39:32;;;;;;;14.85;1.67;;;;;;;4.86;100.00;100599.16;5072437;28;20108;-53
2023/03/06 07:41:58;;;;;;;12.65;1.33;;;;;;;4.84;100.00;100599.31;5071029;28;20406;-53
2023/03/06 07:44:23;;;;;;;12.20;1.40;;;;;;;4.81;100.00;100593.44;5072055;28;20102;-53
2023/03/06 07:46:48;;;;;;;5.80;1.13;;;;;;;4.86;100.00;100590.31;5072139;28;20078;-53
2023/03/06 07:49:14;;;;;;;18.90;3.90;;;;;;;4.83;100.00;100592.28;5072004;28;20115;-53
2023/03/06 07:51:39;;;;;;;24.00;8.88;;;;;;;4.80;100.00;100587.28;5072095;28;21143;-52
2023/03/06 07:54:04;;;;;;;17.45;3.30;;;;;;;4.83;100.00;100588.78;5070827;28;20021;-56
2023/03/06 07:56:30;;;;;;;11.13;2.20;;;;;;;4.89;100.00;100585.50;5071956;28;20029;-54
2023/03/06 07:58:55;;;;;;;14.65;3.15;;;;;;;4.96;100.00;100589.25;5071685;28;20054;-54
2023/03/06 08:01:22;;;;;;;9.77;1.40;;;;;;;5.11;100.00;100586.91;5071570;28;20090;-54
2023/03/06 08:03:48;;;;;;;8.43;1.63;;;;;;;5.27;100.00;100584.38;5071936;28;20160;-55
2023/03/06 08:06:16;;;;;;;14.52;3.78;;;;;;;5.36;100.00;100581.78;5071611;28;20494;-54
2023/03/06 08:08:43;;;;;;;22.27;3.63;;;;;;;5.38;100.00;100577.97;5072082;28;20028;-52
2023/03/06 08:11:10;;;;;;;17.33;2.27;;;;;;;5.32;100.00;100580.41;5071365;28;20063;-52
2023/03/06 08:13:36;;;;;;;9.85;2.17;;;;;;;5.33;100.00;100571.41;5071975;28;20390;-53
2023/03/06 08:16:01;;;;;;;16.27;1.77;;;;;;;5.36;100.00;100577.28;5071588;28;20028;-54
2023/03/06 08:18:27;;;;;;;9.93;1.63;;;;;;;5.40;100.00;100570.66;5071622;28;20044;-52
2023/03/06 08:21:15;;;;;;;9.13;1.10;;;;;;;5.38;100.00;100572.63;5071538;28;20029;-55
2023/03/06 08:23:41;;;;;;;7.22;1.00;;;;;;;5.32;100.00;100575.91;5071245;28;20056;-53
2023/03/06 08:26:10;;;;;;;13.40;2.78;;;;;;;5.40;100.00;100578.66;5071451;28;20483;-55
2023/03/06 08:28:35;;;;;;;11.60;1.10;;;;;;;5.46;100.00;100571.84;5071060;28;20489;-53
2023/03/06 08:31:11;;;;;;;15.07;1.67;;;;;;;5.53;100.00;100566.72;5071290;28;20024;-55
2023/03/06 08:33:37;;;;;;;13.52;1.38;;;;;;;5.46;100.00;100575.34;5071453;28;20119;-53
2023/03/06 08:36:03;;;;;;;11.02;1.13;;;;;;;5.52;100.00;100570.38;5070101;28;20382;-51
2023/03/06 08:38:28;;;;;;;12.43;1.00;;;;;;;5.48;100.00;100575.22;5071408;28;20016;-54
2023/03/06 08:40:54;;;;;;;13.05;1.40;;;;;;;5.42;100.00;100576.66;5071019;28;20107;-54
2023/03/06 08:43:19;;;;;;;13.52;1.05;;;;;;;5.43;100.00;100574.84;5071313;28;20036;-56
2023/03/06 08:45:50;;;;;;;7.05;1.05;;;;;;;5.41;100.00;100569.63;5071052;28;20025;-53
2023/03/06 08:48:16;;;;;;;8.45;1.27;;;;;;;5.36;100.00;100574.59;5071332;28;20108;-54
2023/03/06 08:50:41;;;;;;;16.60;1.38;;;;;;;5.37;100.00;100567.44;5070993;28;20134;-52
2023/03/06 08:53:06;;;;;;;8.13;0.90;;;;;;;5.28;100.00;100564.69;5070808;28;20101;-54
2023/03/06 08:55:35;;;;;;;3.63;0.70;;;;;;;5.33;100.00;100569.59;5070724;28;20024;-55
2023/03/06 08:58:01;;;;;;;9.48;1.02;;;;;;;5.47;100.00;100568.19;5071329;28;20501;-53
2023/03/06 09:00:26;;;;;;;3.72;1.20;;;;;;;5.70;100.00;100563.19;5071167;28;20025;-52
2023/03/06 09:02:52;;;;;;;5.32;1.20;;;;;;;5.97;100.00;100566.69;5071302;28;20032;-53
2023/03/06 09:05:18;;;;;;;4.28;0.95;;;;;;;5.97;100.00;100564.03;5070778;28;20028;-58
2023/03/06 09:07:43;;;;;;;4.85;1.95;;;;;;;6.03;100.00;100564.25;5071030;28;20036;-53
2023/03/06 09:10:13;;;;;;;5.97;0.70;;;;;;;6.06;100.00;100563.09;5070936;28;20020;-53
2023/03/06 09:12:38;;;;;;;3.38;0.93;;;;;;;6.10;100.00;100561.75;5070589;28;20124;-53
2023/03/06 09:15:04;;;;;;;6.45;1.15;;;;;;;6.09;100.00;100566.25;5070840;28;20107;-51
2023/03/06 09:17:30;;;;;;;4.25;1.25;;;;;;;6.02;100.00;100565.22;5070976;28;20028;-54
2023/03/06 09:19:55;;;;;;;9.80;0.80;;;;;;;5.82;100.00;100567.25;5070420;28;20639;-54
2023/03/06 09:22:20;;;;;;;8.07;1.17;;;;;;;5.67;100.00;100571.50;5070645;28;20021;-55
2023/03/06 09:24:46;;;;;;;7.40;1.90;;;;;;;5.40;100.00;100572.47;5070638;28;20031;-52
2023/03/06 09:27:11;;;;;;;4.07;1.00;;;;;;;5.09;100.00;100575.56;5070458;28;20497;-55
2023/03/06 09:29:36;;;;;;;2.25;0.60;;;;;;;5.12;100.00;100579.75;5070396;28;20444;-53
2023/03/06 09:32:02;;;;;;;4.85;0.75;;;;;;;5.15;100.00;100585.59;5070410;28;20059;-52
2023/03/06 09:34:27;;;;;;;9.90;1.40;;;;;;;5.25;100.00;100585.53;5069640;28;20021;-51
2023/03/06 09:36:52;;;;;;;7.28;1.20;;;;;;;5.16;100.00;100586.44;5068537;28;20056;-54
2023/03/06 09:39:18;;;;;;;7.55;1.70;;;;;;;5.12;100.00;100588.56;5070548;28;20024;-51
2023/03/06 09:41:49;;;;;;;9.38;1.83;;;;;;;5.32;100.00;100585.72;5070434;28;20029;-52
2023/03/06 09:44:20;;;;;;;7.22;1.60;;;;;;;5.34;100.00;100578.41;5069294;28;20029;-52
2023/03/06 09:46:52;;;;;;;12.73;2.60;;;;;;;5.47;100.00;100579.69;5068818;28;20669;-52
2023/03/06 09:49:38;;;;;;;15.20;3.22;;;;;;;5.40;100.00;100584.00;5068620;28;20025;-54
2023/03/06 09:52:12;;;;;;;14.68;3.53;;;;;;;5.40;100.00;100573.31;5069205;28;20390;-51
2023/03/06 09:54:42;;;;;;;12.35;3.97;;;;;;;5.52;100.00;100573.88;5070223;28;20036;-53
2023/03/06 09:57:34;;;;;;;18.20;4.18;;;;;;;5.59;100.00;100571.44;5070233;28;20097;-53
2023/03/06 10:00:03;;;;;;;14.32;4.75;;;;;;;5.62;100.00;100577.31;5061072;28;20062;-52
2023/03/06 10:02:37;;;;;;;15.65;6.43;;;;;;;5.67;100.00;100568.84;5052180;28;20032;-51
2023/03/06 10:05:05;;;;;;;24.30;6.97;;;;;;;5.90;100.00;100567.31;5068952;28;20017;-54
2023/03/06 10:07:52;;;;;;;15.15;6.65;;;;;;;6.34;100.00;100571.72;5068796;28;20059;-53
2023/03/06 10:10:21;;;;;;;18.05;7.53;;;;;;;6.78;100.00;100564.31;5068699;28;20483;-52
2023/03/06 10:12:56;;;;;;;29.80;7.85;;;;;;;7.37;100.00;100563.38;5068789;28;20161;-53
2023/03/06 10:15:24;;;;;;;34.83;9.45;;;;;;;7.68;100.00;100550.13;5069030;28;20376;-53
2023/03/06 10:17:50;;;;;;;34.28;11.35;;;;;;;7.83;100.00;100547.59;5068417;28;20048;-53
2023/03/06 10:20:39;;;;;;;28.15;10.25;;;;;;;7.82;100.00;100540.53;5068745;28;20502;-54
2023/03/06 10:23:24;;;;;;;29.85;10.43;;;;;;;7.95;100.00;100540.84;5068602;28;20067;-52
2023/03/06 10:25:58;;;;;;;27.95;11.13;;;;;;;7.91;100.00;100535.00;5069909;28;20115;-55
2023/03/06 10:28:49;;;;;;;55.20;12.02;;;;;;;8.13;100.00;100525.34;5070023;28;20387;-51
2023/03/06 10:31:20;;;;;;;32.40;10.73;;;;;;;8.06;100.00;100524.41;5070089;28;20746;-50
2023/03/06 10:34:13;;;;;;;33.20;10.02;;;;;;;8.10;100.00;100523.03;5068607;28;20471;-53
2023/03/06 10:36:38;;;;;;;37.08;9.82;;;;;;;7.90;100.00;100527.16;5068693;28;20074;-51
2023/03/06 10:39:11;;;;;;;23.00;8.40;;;;;;;7.63;100.00;100515.81;5069773;28;20107;-51
2023/03/06 10:41:37;;;;;;;23.33;9.02;;;;;;;7.28;100.00;100521.56;5068619;28;20113;-52
2023/03/06 10:44:02;;;;;;;22.95;8.20;;;;;;;7.00;100.00;100513.84;5069710;28;20071;-52
2023/03/06 10:46:36;;;;;;;34.42;9.45;;;;;;;6.96;100.00;100512.53;5070733;28;20047;-54
2023/03/06 10:49:21;;;;;;;36.42;8.82;;;;;;;6.91;100.00;100517.53;5073416;28;20268;-52
2023/03/06 10:52:00;;;;;;;37.38;11.02;;;;;;;7.03;100.00;100509.03;5072025;28;20048;-53
2023/03/06 10:54:26;;;;;;;30.35;8.80;;;;;;;7.23;100.00;100498.78;5073348;28;20097;-53
2023/03/06 10:56:51;;;;;;;26.80;8.55;;;;;;;7.24;100.00;100508.53;5073508;28;20028;-54
2023/03/06 10:59:24;;;;;;;21.17;8.38;;;;;;;7.25;100.00;100504.81;5073143;28;20142;-51
2023/03/06 11:02:39;;;;;;;22.58;7.50;;;;;;;7.73;100.00;100494.19;5073977;28;20416;-58
2023/03/06 11:05:09;;;;;;;26.80;7.75;;;;;;;8.03;100.00;100495.28;5076895;28;20027;-51
2023/03/06 11:07:35;;;;;;;24.00;7.60;;;;;;;8.27;100.00;100494.31;5058169;28;20470;-52
2023/03/06 11:10:17;;;;;;;20.15;6.97;;;;;;;8.53;100.00;100482.44;5075739;28;20032;-51
2023/03/06 11:12:56;;;;;;;25.00;8.48;;;;;;;8.43;100.00;100490.75;5071980;28;20430;-51
2023/03/06 11:15:23;;;;;;;33.42;8.85;;;;;;;8.14;99.25;100486.00;5073401;28;20032;-51
2023/03/06 11:18:06;;;;;;;33.88;8.95;;;;;;;8.00;100.00;100479.50;5071783;28;20036;-51
2023/03/06 11:20:46;;;;;;;24.73;8.77;;;;;;;7.75;100.00;100475.28;5073025;28;20054;-52
2023/03/06 11:23:43;;;;;;;35.33;10.10;;;;;;;8.06;100.00;100483.38;5071609;28;20086;-53